sensor_id;sensor_type;location;lat;lon;timestamp;P1;durP1;ratioP1;P2;durP2;ratioP2
21420;SDS011;10871;50.144;8.428;2023-02-28T00:00:26;7.32;;;3.33;;
21420;SDS011;10871;50.144;8.428;2023-02-28T00:02:53;5.18;;;3.75;;
21420;SDS011;10871;50.144;8.428;2023-02-28T00:05:22;3.78;;;3.38;;
21420;SDS011;10871;50.144;8.428;2023-02-28T00:07:49;4.47;;;3.38;;
21420;SDS011;10871;50.144;8.428;2023-02-28T00:10:23;5.72;;;3.50;;
21420;SDS011;10871;50.144;8.428;2023-02-28T00:12:51;4.07;;;3.35;;
21420;SDS011;10871;50.144;8.428;2023-02-28T00:15:20;4.20;;;3.72;;
21420;SDS011;10871;50.144;8.428;2023-02-28T00:17:47;5.22;;;3.55;;
21420;SDS011;10871;50.144;8.428;2023-02-28T00:20:14;4.80;;;3.47;;
21420;SDS011;10871;50.144;8.428;2023-02-28T00:22:43;4.97;;;3.80;;
21420;SDS011;10871;50.144;8.428;2023-02-28T00:25:11;4.85;;;3.58;;
21420;SDS011;10871;50.144;8.428;2023-02-28T00:27:38;4.78;;;3.65;;
21420;SDS011;10871;50.144;8.428;2023-02-28T00:30:05;4.82;;;3.75;;
21420;SDS011;10871;50.144;8.428;2023-02-28T00:32:32;7.03;;;3.83;;
21420;SDS011;10871;50.144;8.428;2023-02-28T00:35:00;4.53;;;3.50;;
21420;SDS011;10871;50.144;8.428;2023-02-28T00:37:27;5.90;;;3.92;;
21420;SDS011;10871;50.144;8.428;2023-02-28T00:39:55;4.70;;;3.92;;
21420;SDS011;10871;50.144;8.428;2023-02-28T00:42:23;4.97;;;4.03;;
21420;SDS011;10871;50.144;8.428;2023-02-28T00:44:49;5.15;;;4.03;;
21420;SDS011;10871;50.144;8.428;2023-02-28T00:47:16;5.68;;;4.35;;
21420;SDS011;10871;50.144;8.428;2023-02-28T00:49:42;6.53;;;3.97;;
21420;SDS011;10871;50.144;8.428;2023-02-28T00:52:09;6.32;;;4.40;;
21420;SDS011;10871;50.144;8.428;2023-02-28T00:54:36;6.75;;;4.82;;
21420;SDS011;10871;50.144;8.428;2023-02-28T00:57:03;6.07;;;4.85;;
21420;SDS011;10871;50.144;8.428;2023-02-28T00:59:30;6.78;;;4.78;;
21420;SDS011;10871;50.144;8.428;2023-02-28T01:01:57;6.53;;;4.97;;
21420;SDS011;10871;50.144;8.428;2023-02-28T01:04:24;7.30;;;5.22;;
21420;SDS011;10871;50.144;8.428;2023-02-28T01:06:51;5.82;;;4.88;;
21420;SDS011;10871;50.144;8.428;2023-02-28T01:09:18;7.35;;;5.05;;
21420;SDS011;10871;50.144;8.428;2023-02-28T01:11:44;10.45;;;5.50;;
21420;SDS011;10871;50.144;8.428;2023-02-28T01:14:12;8.10;;;5.40;;
21420;SDS011;10871;50.144;8.428;2023-02-28T01:16:39;7.25;;;5.50;;
21420;SDS011;10871;50.144;8.428;2023-02-28T01:19:07;7.53;;;5.00;;
21420;SDS011;10871;50.144;8.428;2023-02-28T01:21:37;7.03;;;5.38;;
21420;SDS011;10871;50.144;8.428;2023-02-28T01:24:04;6.47;;;5.43;;
21420;SDS011;10871;50.144;8.428;2023-02-28T01:26:31;7.43;;;5.40;;
21420;SDS011;10871;50.144;8.428;2023-02-28T01:28:58;8.38;;;5.22;;
21420;SDS011;10871;50.144;8.428;2023-02-28T01:31:24;7.70;;;5.30;;
21420;SDS011;10871;50.144;8.428;2023-02-28T01:33:51;6.53;;;5.32;;
21420;SDS011;10871;50.144;8.428;2023-02-28T01:36:19;6.28;;;5.10;;
21420;SDS011;10871;50.144;8.428;2023-02-28T01:38:45;8.52;;;5.25;;
21420;SDS011;10871;50.144;8.428;2023-02-28T01:41:17;7.80;;;5.10;;
21420;SDS011;10871;50.144;8.428;2023-02-28T01:46:11;6.85;;;5.05;;
21420;SDS011;10871;50.144;8.428;2023-02-28T01:48:38;6.40;;;4.90;;
21420;SDS011;10871;50.144;8.428;2023-02-28T01:51:11;7.22;;;4.47;;
21420;SDS011;10871;50.144;8.428;2023-02-28T01:53:39;6.97;;;4.30;;
21420;SDS011;10871;50.144;8.428;2023-02-28T01:56:08;5.80;;;4.68;;
21420;SDS011;10871;50.144;8.428;2023-02-28T01:58:36;6.22;;;4.70;;
21420;SDS011;10871;50.144;8.428;2023-02-28T02:01:03;6.00;;;4.63;;
21420;SDS011;10871;50.144;8.428;2023-02-28T02:03:32;7.28;;;4.82;;
21420;SDS011;10871;50.144;8.428;2023-02-28T02:06:00;6.38;;;4.82;;
21420;SDS011;10871;50.144;8.428;2023-02-28T02:08:28;7.75;;;5.07;;
21420;SDS011;10871;50.144;8.428;2023-02-28T02:10:57;6.00;;;4.80;;
21420;SDS011;10871;50.144;8.428;2023-02-28T02:16:19;7.72;;;4.50;;
21420;SDS011;10871;50.144;8.428;2023-02-28T02:26:43;4.97;;;4.13;;
21420;SDS011;10871;50.144;8.428;2023-02-28T02:29:19;4.32;;;3.72;;
21420;SDS011;10871;50.144;8.428;2023-02-28T02:31:56;5.57;;;4.13;;
21420;SDS011;10871;50.144;8.428;2023-02-28T02:39:52;5.72;;;3.90;;
21420;SDS011;10871;50.144;8.428;2023-02-28T02:42:25;4.40;;;3.85;;
21420;SDS011;10871;50.144;8.428;2023-02-28T02:45:14;4.65;;;3.40;;
21420;SDS011;10871;50.144;8.428;2023-02-28T02:47:41;11.02;;;3.88;;
21420;SDS011;10871;50.144;8.428;2023-02-28T02:50:12;5.05;;;3.55;;
21420;SDS011;10871;50.144;8.428;2023-02-28T02:52:44;5.22;;;3.78;;
21420;SDS011;10871;50.144;8.428;2023-02-28T02:55:13;5.22;;;3.72;;
21420;SDS011;10871;50.144;8.428;2023-02-28T02:57:45;7.97;;;3.60;;
21420;SDS011;10871;50.144;8.428;2023-02-28T03:00:13;4.63;;;3.40;;
21420;SDS011;10871;50.144;8.428;2023-02-28T03:02:42;5.00;;;3.70;;
21420;SDS011;10871;50.144;8.428;2023-02-28T03:05:20;3.75;;;3.42;;
21420;SDS011;10871;50.144;8.428;2023-02-28T03:07:49;5.38;;;3.53;;
21420;SDS011;10871;50.144;8.428;2023-02-28T03:12:59;5.47;;;4.03;;
21420;SDS011;10871;50.144;8.428;2023-02-28T03:15:30;3.72;;;2.92;;
21420;SDS011;10871;50.144;8.428;2023-02-28T03:22:59;4.45;;;3.67;;
21420;SDS011;10871;50.144;8.428;2023-02-28T03:33:58;4.43;;;4.03;;
21420;SDS011;10871;50.144;8.428;2023-02-28T03:36:04;5.18;;;3.70;;
21420;SDS011;10871;50.144;8.428;2023-02-28T03:38:44;6.13;;;3.97;;
21420;SDS011;10871;50.144;8.428;2023-02-28T03:41:23;4.45;;;3.80;;
21420;SDS011;10871;50.144;8.428;2023-02-28T03:43:58;6.25;;;4.00;;
21420;SDS011;10871;50.144;8.428;2023-02-28T03:46:26;5.95;;;4.22;;
21420;SDS011;10871;50.144;8.428;2023-02-28T03:48:55;6.47;;;4.13;;
21420;SDS011;10871;50.144;8.428;2023-02-28T03:51:23;6.18;;;4.00;;
21420;SDS011;10871;50.144;8.428;2023-02-28T03:53:51;5.05;;;4.05;;
21420;SDS011;10871;50.144;8.428;2023-02-28T03:56:25;5.70;;;4.13;;
21420;SDS011;10871;50.144;8.428;2023-02-28T04:01:39;5.28;;;4.00;;
21420;SDS011;10871;50.144;8.428;2023-02-28T04:04:08;5.07;;;3.90;;
21420;SDS011;10871;50.144;8.428;2023-02-28T04:06:35;5.30;;;3.83;;
21420;SDS011;10871;50.144;8.428;2023-02-28T04:09:02;5.25;;;4.00;;
21420;SDS011;10871;50.144;8.428;2023-02-28T04:11:34;4.25;;;3.50;;
21420;SDS011;10871;50.144;8.428;2023-02-28T04:14:02;4.38;;;3.50;;
21420;SDS011;10871;50.144;8.428;2023-02-28T04:16:30;5.30;;;3.95;;
21420;SDS011;10871;50.144;8.428;2023-02-28T04:19:01;4.22;;;3.78;;
21420;SDS011;10871;50.144;8.428;2023-02-28T04:21:32;4.97;;;3.50;;
21420;SDS011;10871;50.144;8.428;2023-02-28T04:23:59;3.90;;;3.25;;
21420;SDS011;10871;50.144;8.428;2023-02-28T04:26:30;4.55;;;3.55;;
21420;SDS011;10871;50.144;8.428;2023-02-28T04:28:57;4.15;;;3.13;;
21420;SDS011;10871;50.144;8.428;2023-02-28T04:31:24;5.50;;;3.33;;
21420;SDS011;10871;50.144;8.428;2023-02-28T04:33:51;4.10;;;3.67;;
21420;SDS011;10871;50.144;8.428;2023-02-28T04:36:18;3.60;;;3.17;;
21420;SDS011;10871;50.144;8.428;2023-02-28T04:38:44;3.65;;;3.30;;
21420;SDS011;10871;50.144;8.428;2023-02-28T04:41:12;5.57;;;3.33;;
21420;SDS011;10871;50.144;8.428;2023-02-28T04:43:38;4.63;;;3.35;;
21420;SDS011;10871;50.144;8.428;2023-02-28T04:46:06;5.80;;;3.40;;
21420;SDS011;10871;50.144;8.428;2023-02-28T04:48:37;4.07;;;3.30;;
21420;SDS011;10871;50.144;8.428;2023-02-28T04:51:08;3.85;;;3.25;;
21420;SDS011;10871;50.144;8.428;2023-02-28T04:53:36;5.18;;;3.05;;
21420;SDS011;10871;50.144;8.428;2023-02-28T04:56:03;5.18;;;3.50;;
21420;SDS011;10871;50.144;8.428;2023-02-28T04:58:30;3.42;;;3.00;;
21420;SDS011;10871;50.144;8.428;2023-02-28T05:01:07;4.30;;;2.80;;
21420;SDS011;10871;50.144;8.428;2023-02-28T05:03:42;4.20;;;2.70;;
21420;SDS011;10871;50.144;8.428;2023-02-28T05:06:09;4.00;;;2.80;;
21420;SDS011;10871;50.144;8.428;2023-02-28T05:08:36;3.50;;;2.80;;
21420;SDS011;10871;50.144;8.428;2023-02-28T05:11:03;3.40;;;2.60;;
21420;SDS011;10871;50.144;8.428;2023-02-28T05:13:30;3.45;;;2.85;;
21420;SDS011;10871;50.144;8.428;2023-02-28T05:15:56;5.05;;;2.72;;
21420;SDS011;10871;50.144;8.428;2023-02-28T05:18:23;3.67;;;2.60;;
21420;SDS011;10871;50.144;8.428;2023-02-28T05:20:50;4.85;;;2.70;;
21420;SDS011;10871;50.144;8.428;2023-02-28T05:23:16;3.22;;;2.65;;
21420;SDS011;10871;50.144;8.428;2023-02-28T05:25:43;3.97;;;3.00;;
21420;SDS011;10871;50.144;8.428;2023-02-28T05:28:10;2.95;;;2.70;;
21420;SDS011;10871;50.144;8.428;2023-02-28T05:30:37;8.70;;;2.83;;
21420;SDS011;10871;50.144;8.428;2023-02-28T05:33:03;2.88;;;2.55;;
21420;SDS011;10871;50.144;8.428;2023-02-28T05:35:30;8.88;;;3.08;;
21420;SDS011;10871;50.144;8.428;2023-02-28T05:37:56;5.32;;;2.58;;
21420;SDS011;10871;50.144;8.428;2023-02-28T05:40:23;3.95;;;2.90;;
21420;SDS011;10871;50.144;8.428;2023-02-28T05:42:54;3.60;;;2.50;;
21420;SDS011;10871;50.144;8.428;2023-02-28T05:45:20;4.15;;;2.90;;
21420;SDS011;10871;50.144;8.428;2023-02-28T05:47:47;4.30;;;2.50;;
21420;SDS011;10871;50.144;8.428;2023-02-28T05:50:14;3.90;;;2.90;;
21420;SDS011;10871;50.144;8.428;2023-02-28T05:52:41;3.92;;;3.00;;
21420;SDS011;10871;50.144;8.428;2023-02-28T05:55:07;3.50;;;2.70;;
21420;SDS011;10871;50.144;8.428;2023-02-28T05:57:34;6.28;;;3.05;;
21420;SDS011;10871;50.144;8.428;2023-02-28T06:00:01;2.88;;;2.53;;
21420;SDS011;10871;50.144;8.428;2023-02-28T06:02:38;3.10;;;2.80;;
21420;SDS011;10871;50.144;8.428;2023-02-28T06:05:05;4.80;;;2.65;;
21420;SDS011;10871;50.144;8.428;2023-02-28T06:07:31;4.53;;;3.08;;
21420;SDS011;10871;50.144;8.428;2023-02-28T06:09:58;4.13;;;3.38;;
21420;SDS011;10871;50.144;8.428;2023-02-28T06:12:25;4.35;;;2.97;;
21420;SDS011;10871;50.144;8.428;2023-02-28T06:14:51;4.90;;;2.85;;
21420;SDS011;10871;50.144;8.428;2023-02-28T06:17:18;4.18;;;3.10;;
21420;SDS011;10871;50.144;8.428;2023-02-28T06:19:44;5.30;;;3.25;;
21420;SDS011;10871;50.144;8.428;2023-02-28T06:22:11;3.33;;;2.90;;
21420;SDS011;10871;50.144;8.428;2023-02-28T06:24:38;3.88;;;2.95;;
21420;SDS011;10871;50.144;8.428;2023-02-28T06:27:04;4.97;;;3.38;;
21420;SDS011;10871;50.144;8.428;2023-02-28T06:29:32;4.50;;;3.30;;
21420;SDS011;10871;50.144;8.428;2023-02-28T06:31:59;5.03;;;3.58;;
21420;SDS011;10871;50.144;8.428;2023-02-28T06:34:26;3.60;;;3.00;;
21420;SDS011;10871;50.144;8.428;2023-02-28T06:36:52;5.35;;;2.95;;
21420;SDS011;10871;50.144;8.428;2023-02-28T06:39:19;4.88;;;3.30;;
21420;SDS011;10871;50.144;8.428;2023-02-28T06:41:46;4.20;;;3.15;;
21420;SDS011;10871;50.144;8.428;2023-02-28T06:44:21;4.53;;;2.58;;
21420;SDS011;10871;50.144;8.428;2023-02-28T06:46:48;5.15;;;2.80;;
21420;SDS011;10871;50.144;8.428;2023-02-28T06:49:16;4.15;;;2.90;;
21420;SDS011;10871;50.144;8.428;2023-02-28T06:51:43;6.63;;;2.65;;
21420;SDS011;10871;50.144;8.428;2023-02-28T06:54:11;4.20;;;2.78;;
21420;SDS011;10871;50.144;8.428;2023-02-28T06:56:38;4.00;;;2.67;;
21420;SDS011;10871;50.144;8.428;2023-02-28T06:59:05;4.45;;;2.70;;
21420;SDS011;10871;50.144;8.428;2023-02-28T07:01:31;5.28;;;3.03;;
21420;SDS011;10871;50.144;8.428;2023-02-28T07:03:59;4.57;;;2.90;;
21420;SDS011;10871;50.144;8.428;2023-02-28T07:06:26;3.03;;;2.70;;
21420;SDS011;10871;50.144;8.428;2023-02-28T07:08:53;4.90;;;2.90;;
21420;SDS011;10871;50.144;8.428;2023-02-28T07:11:20;5.28;;;2.80;;
21420;SDS011;10871;50.144;8.428;2023-02-28T07:13:49;4.03;;;2.80;;
21420;SDS011;10871;50.144;8.428;2023-02-28T07:16:17;5.70;;;3.20;;
21420;SDS011;10871;50.144;8.428;2023-02-28T07:18:44;3.50;;;2.60;;
21420;SDS011;10871;50.144;8.428;2023-02-28T07:21:10;4.07;;;2.70;;
21420;SDS011;10871;50.144;8.428;2023-02-28T07:23:37;3.33;;;2.85;;
21420;SDS011;10871;50.144;8.428;2023-02-28T07:26:06;4.03;;;3.10;;
21420;SDS011;10871;50.144;8.428;2023-02-28T07:28:33;5.10;;;2.75;;
21420;SDS011;10871;50.144;8.428;2023-02-28T07:31:06;4.28;;;3.20;;
21420;SDS011;10871;50.144;8.428;2023-02-28T07:33:33;3.85;;;3.10;;
21420;SDS011;10871;50.144;8.428;2023-02-28T07:36:07;4.03;;;3.08;;
21420;SDS011;10871;50.144;8.428;2023-02-28T07:38:35;3.58;;;3.20;;
21420;SDS011;10871;50.144;8.428;2023-02-28T07:41:02;4.88;;;3.17;;
21420;SDS011;10871;50.144;8.428;2023-02-28T07:43:32;4.55;;;3.33;;
21420;SDS011;10871;50.144;8.428;2023-02-28T07:46:06;5.88;;;3.30;;
21420;SDS011;10871;50.144;8.428;2023-02-28T07:48:33;4.80;;;3.80;;
21420;SDS011;10871;50.144;8.428;2023-02-28T07:51:00;5.35;;;3.92;;
21420;SDS011;10871;50.144;8.428;2023-02-28T07:53:27;5.10;;;3.65;;
21420;SDS011;10871;50.144;8.428;2023-02-28T07:55:55;5.13;;;3.60;;
21420;SDS011;10871;50.144;8.428;2023-02-28T07:58:23;4.72;;;3.67;;
21420;SDS011;10871;50.144;8.428;2023-02-28T08:00:50;4.13;;;3.50;;
21420;SDS011;10871;50.144;8.428;2023-02-28T08:03:19;5.47;;;3.70;;
21420;SDS011;10871;50.144;8.428;2023-02-28T08:05:46;6.53;;;3.80;;
21420;SDS011;10871;50.144;8.428;2023-02-28T08:08:15;3.45;;;3.13;;
21420;SDS011;10871;50.144;8.428;2023-02-28T08:10:45;4.47;;;3.65;;
21420;SDS011;10871;50.144;8.428;2023-02-28T08:13:13;4.03;;;3.30;;
21420;SDS011;10871;50.144;8.428;2023-02-28T08:15:41;4.13;;;3.60;;
21420;SDS011;10871;50.144;8.428;2023-02-28T08:18:09;3.85;;;3.42;;
21420;SDS011;10871;50.144;8.428;2023-02-28T08:20:38;3.90;;;3.50;;
21420;SDS011;10871;50.144;8.428;2023-02-28T08:23:05;4.03;;;3.55;;
21420;SDS011;10871;50.144;8.428;2023-02-28T08:25:32;3.67;;;3.30;;
21420;SDS011;10871;50.144;8.428;2023-02-28T08:27:59;4.10;;;3.70;;
21420;SDS011;10871;50.144;8.428;2023-02-28T08:30:26;3.33;;;3.00;;
21420;SDS011;10871;50.144;8.428;2023-02-28T08:32:55;3.90;;;3.50;;
21420;SDS011;10871;50.144;8.428;2023-02-28T08:35:22;4.63;;;3.70;;
21420;SDS011;10871;50.144;8.428;2023-02-28T08:37:50;4.45;;;3.47;;
21420;SDS011;10871;50.144;8.428;2023-02-28T08:40:18;4.72;;;3.70;;
21420;SDS011;10871;50.144;8.428;2023-02-28T08:42:47;5.53;;;3.90;;
21420;SDS011;10871;50.144;8.428;2023-02-28T08:45:14;4.72;;;3.45;;
21420;SDS011;10871;50.144;8.428;2023-02-28T08:47:42;4.22;;;3.75;;
21420;SDS011;10871;50.144;8.428;2023-02-28T08:50:10;4.75;;;3.42;;
21420;SDS011;10871;50.144;8.428;2023-02-28T08:52:38;4.93;;;3.53;;
21420;SDS011;10871;50.144;8.428;2023-02-28T08:55:06;4.78;;;4.00;;
21420;SDS011;10871;50.144;8.428;2023-02-28T08:57:33;4.93;;;4.00;;
21420;SDS011;10871;50.144;8.428;2023-02-28T09:00:01;4.75;;;4.28;;
21420;SDS011;10871;50.144;8.428;2023-02-28T09:02:31;5.47;;;4.50;;
21420;SDS011;10871;50.144;8.428;2023-02-28T09:04:59;4.53;;;4.13;;
21420;SDS011;10871;50.144;8.428;2023-02-28T09:07:28;5.93;;;4.30;;
21420;SDS011;10871;50.144;8.428;2023-02-28T09:09:56;4.32;;;3.92;;
21420;SDS011;10871;50.144;8.428;2023-02-28T09:12:25;4.90;;;4.40;;
21420;SDS011;10871;50.144;8.428;2023-02-28T09:14:53;4.72;;;4.32;;
21420;SDS011;10871;50.144;8.428;2023-02-28T09:17:22;4.88;;;4.47;;
21420;SDS011;10871;50.144;8.428;2023-02-28T09:19:49;4.82;;;4.30;;
21420;SDS011;10871;50.144;8.428;2023-02-28T09:22:18;5.15;;;3.97;;
21420;SDS011;10871;50.144;8.428;2023-02-28T09:24:46;4.53;;;4.10;;
21420;SDS011;10871;50.144;8.428;2023-02-28T09:27:14;5.03;;;4.63;;
21420;SDS011;10871;50.144;8.428;2023-02-28T09:29:41;4.88;;;4.47;;
21420;SDS011;10871;50.144;8.428;2023-02-28T09:32:08;6.00;;;5.50;;
21420;SDS011;10871;50.144;8.428;2023-02-28T09:34:37;5.20;;;4.50;;
21420;SDS011;10871;50.144;8.428;2023-02-28T09:37:05;4.82;;;4.43;;
21420;SDS011;10871;50.144;8.428;2023-02-28T09:39:32;4.78;;;4.22;;
21420;SDS011;10871;50.144;8.428;2023-02-28T09:42:00;6.85;;;4.80;;
21420;SDS011;10871;50.144;8.428;2023-02-28T09:44:36;5.22;;;4.47;;
21420;SDS011;10871;50.144;8.428;2023-02-28T09:47:21;5.35;;;4.95;;
21420;SDS011;10871;50.144;8.428;2023-02-28T09:49:52;6.93;;;4.40;;
21420;SDS011;10871;50.144;8.428;2023-02-28T09:52:21;4.88;;;4.38;;
21420;SDS011;10871;50.144;8.428;2023-02-28T09:54:50;5.53;;;5.03;;
21420;SDS011;10871;50.144;8.428;2023-02-28T10:02:37;6.03;;;4.55;;
21420;SDS011;10871;50.144;8.428;2023-02-28T10:05:08;5.78;;;5.25;;
21420;SDS011;10871;50.144;8.428;2023-02-28T10:12:52;6.40;;;5.82;;
21420;SDS011;10871;50.144;8.428;2023-02-28T10:15:21;6.72;;;4.80;;
21420;SDS011;10871;50.144;8.428;2023-02-28T10:17:51;5.15;;;4.65;;
21420;SDS011;10871;50.144;8.428;2023-02-28T10:20:26;5.90;;;5.40;;
21420;SDS011;10871;50.144;8.428;2023-02-28T10:23:04;6.68;;;4.35;;
21420;SDS011;10871;50.144;8.428;2023-02-28T10:25:35;8.07;;;5.13;;
21420;SDS011;10871;50.144;8.428;2023-02-28T10:28:09;5.68;;;5.18;;
21420;SDS011;10871;50.144;8.428;2023-02-28T10:30:37;7.78;;;7.07;;
21420;SDS011;10871;50.144;8.428;2023-02-28T10:33:08;5.63;;;4.68;;
21420;SDS011;10871;50.144;8.428;2023-02-28T10:35:36;5.60;;;5.00;;
21420;SDS011;10871;50.144;8.428;2023-02-28T10:38:05;5.00;;;4.60;;
21420;SDS011;10871;50.144;8.428;2023-02-28T10:40:39;5.43;;;4.78;;
21420;SDS011;10871;50.144;8.428;2023-02-28T10:43:17;6.38;;;4.70;;
21420;SDS011;10871;50.144;8.428;2023-02-28T10:45:59;6.20;;;5.47;;
21420;SDS011;10871;50.144;8.428;2023-02-28T10:48:31;6.10;;;5.50;;
21420;SDS011;10871;50.144;8.428;2023-02-28T10:50:59;6.45;;;5.00;;
21420;SDS011;10871;50.144;8.428;2023-02-28T10:53:34;6.88;;;5.00;;
21420;SDS011;10871;50.144;8.428;2023-02-28T10:56:22;6.28;;;5.20;;
21420;SDS011;10871;50.144;8.428;2023-02-28T10:59:00;7.25;;;5.38;;
21420;SDS011;10871;50.144;8.428;2023-02-28T11:01:35;7.43;;;5.10;;
21420;SDS011;10871;50.144;8.428;2023-02-28T11:04:03;6.53;;;5.10;;
21420;SDS011;10871;50.144;8.428;2023-02-28T11:06:32;7.82;;;5.20;;
21420;SDS011;10871;50.144;8.428;2023-02-28T11:09:02;6.43;;;5.20;;
21420;SDS011;10871;50.144;8.428;2023-02-28T11:11:30;6.15;;;5.13;;
21420;SDS011;10871;50.144;8.428;2023-02-28T11:14:15;5.47;;;4.97;;
21420;SDS011;10871;50.144;8.428;2023-02-28T11:16:45;5.32;;;4.65;;
21420;SDS011;10871;50.144;8.428;2023-02-28T11:19:47;7.07;;;4.82;;
21420;SDS011;10871;50.144;8.428;2023-02-28T11:22:07;6.85;;;5.22;;
21420;SDS011;10871;50.144;8.428;2023-02-28T11:24:36;7.30;;;5.82;;
21420;SDS011;10871;50.144;8.428;2023-02-28T11:27:05;6.63;;;5.43;;
21420;SDS011;10871;50.144;8.428;2023-02-28T11:29:33;5.60;;;5.10;;
21420;SDS011;10871;50.144;8.428;2023-02-28T11:32:03;6.00;;;5.10;;
21420;SDS011;10871;50.144;8.428;2023-02-28T11:34:30;7.32;;;5.50;;
21420;SDS011;10871;50.144;8.428;2023-02-28T11:37:00;5.70;;;4.95;;
21420;SDS011;10871;50.144;8.428;2023-02-28T11:39:30;5.53;;;5.03;;
21420;SDS011;10871;50.144;8.428;2023-02-28T11:44:51;5.47;;;4.97;;
21420;SDS011;10871;50.144;8.428;2023-02-28T11:52:40;9.70;;;5.30;;
21420;SDS011;10871;50.144;8.428;2023-02-28T12:03:26;5.88;;;5.32;;
21420;SDS011;10871;50.144;8.428;2023-02-28T12:06:06;7.15;;;5.28;;
21420;SDS011;10871;50.144;8.428;2023-02-28T12:09:00;5.38;;;4.85;;
21420;SDS011;10871;50.144;8.428;2023-02-28T12:11:35;7.00;;;5.95;;
21420;SDS011;10871;50.144;8.428;2023-02-28T12:19:17;9.35;;;5.55;;
21420;SDS011;10871;50.144;8.428;2023-02-28T12:24:38;6.82;;;5.50;;
21420;SDS011;10871;50.144;8.428;2023-02-28T12:27:09;6.82;;;5.20;;
21420;SDS011;10871;50.144;8.428;2023-02-28T12:35:00;7.47;;;6.00;;
21420;SDS011;10871;50.144;8.428;2023-02-28T12:37:40;6.75;;;6.00;;
21420;SDS011;10871;50.144;8.428;2023-02-28T12:40:14;6.30;;;5.55;;
21420;SDS011;10871;50.144;8.428;2023-02-28T12:42:45;6.43;;;5.50;;
21420;SDS011;10871;50.144;8.428;2023-02-28T12:45:17;7.78;;;6.05;;
21420;SDS011;10871;50.144;8.428;2023-02-28T12:47:46;9.25;;;6.28;;
21420;SDS011;10871;50.144;8.428;2023-02-28T12:50:16;7.18;;;5.85;;
21420;SDS011;10871;50.144;8.428;2023-02-28T12:52:54;6.82;;;6.05;;
21420;SDS011;10871;50.144;8.428;2023-02-28T12:58:12;7.78;;;6.20;;
21420;SDS011;10871;50.144;8.428;2023-02-28T13:00:48;7.43;;;6.05;;
21420;SDS011;10871;50.144;8.428;2023-02-28T13:11:22;8.43;;;6.18;;
21420;SDS011;10871;50.144;8.428;2023-02-28T13:13:56;7.95;;;6.20;;
21420;SDS011;10871;50.144;8.428;2023-02-28T13:16:24;11.15;;;6.32;;
21420;SDS011;10871;50.144;8.428;2023-02-28T13:18:51;7.15;;;6.00;;
21420;SDS011;10871;50.144;8.428;2023-02-28T13:21:27;8.40;;;6.10;;
21420;SDS011;10871;50.144;8.428;2023-02-28T13:23:57;6.80;;;6.10;;
21420;SDS011;10871;50.144;8.428;2023-02-28T13:34:29;7.05;;;6.07;;
21420;SDS011;10871;50.144;8.428;2023-02-28T13:42:56;10.27;;;7.40;;
21420;SDS011;10871;50.144;8.428;2023-02-28T13:47:35;7.72;;;6.43;;
21420;SDS011;10871;50.144;8.428;2023-02-28T13:50:21;9.70;;;6.53;;
21420;SDS011;10871;50.144;8.428;2023-02-28T13:55:32;7.68;;;6.57;;
21420;SDS011;10871;50.144;8.428;2023-02-28T14:00:43;10.23;;;6.72;;
21420;SDS011;10871;50.144;8.428;2023-02-28T14:05:47;6.65;;;5.88;;
21420;SDS011;10871;50.144;8.428;2023-02-28T14:08:35;8.00;;;6.55;;
21420;SDS011;10871;50.144;8.428;2023-02-28T14:11:05;7.85;;;6.10;;
21420;SDS011;10871;50.144;8.428;2023-02-28T14:13:38;7.00;;;5.65;;
21420;SDS011;10871;50.144;8.428;2023-02-28T14:16:23;7.25;;;5.88;;
21420;SDS011;10871;50.144;8.428;2023-02-28T14:19:09;9.10;;;6.05;;
21420;SDS011;10871;50.144;8.428;2023-02-28T14:21:39;7.22;;;6.05;;
21420;SDS011;10871;50.144;8.428;2023-02-28T14:29:43;8.05;;;5.65;;
21420;SDS011;10871;50.144;8.428;2023-02-28T14:35:02;7.43;;;6.00;;
21420;SDS011;10871;50.144;8.428;2023-02-28T14:37:33;10.65;;;6.93;;
21420;SDS011;10871;50.144;8.428;2023-02-28T14:40:03;7.38;;;6.35;;
21420;SDS011;10871;50.144;8.428;2023-02-28T14:42:32;9.23;;;6.55;;
21420;SDS011;10871;50.144;8.428;2023-02-28T14:45:00;7.65;;;6.25;;
21420;SDS011;10871;50.144;8.428;2023-02-28T14:47:28;9.15;;;6.50;;
21420;SDS011;10871;50.144;8.428;2023-02-28T14:49:58;8.40;;;6.60;;
21420;SDS011;10871;50.144;8.428;2023-02-28T14:52:30;8.20;;;6.40;;
21420;SDS011;10871;50.144;8.428;2023-02-28T14:54:59;9.30;;;6.78;;
21420;SDS011;10871;50.144;8.428;2023-02-28T14:57:32;8.20;;;6.40;;
21420;SDS011;10871;50.144;8.428;2023-02-28T15:00:06;8.30;;;6.40;;
21420;SDS011;10871;50.144;8.428;2023-02-28T15:02:41;10.50;;;6.53;;
21420;SDS011;10871;50.144;8.428;2023-02-28T15:05:19;8.13;;;5.80;;
21420;SDS011;10871;50.144;8.428;2023-02-28T15:07:48;8.98;;;6.72;;
21420;SDS011;10871;50.144;8.428;2023-02-28T15:12:49;8.68;;;6.05;;
21420;SDS011;10871;50.144;8.428;2023-02-28T15:15:19;9.38;;;6.35;;
21420;SDS011;10871;50.144;8.428;2023-02-28T15:18:06;8.73;;;6.75;;
21420;SDS011;10871;50.144;8.428;2023-02-28T15:20:34;8.63;;;6.32;;
21420;SDS011;10871;50.144;8.428;2023-02-28T15:23:03;13.18;;;6.60;;
21420;SDS011;10871;50.144;8.428;2023-02-28T15:25:30;8.85;;;6.60;;
21420;SDS011;10871;50.144;8.428;2023-02-28T15:27:59;8.45;;;6.13;;
21420;SDS011;10871;50.144;8.428;2023-02-28T15:30:30;7.85;;;5.65;;
21420;SDS011;10871;50.144;8.428;2023-02-28T15:33:02;6.55;;;5.75;;
21420;SDS011;10871;50.144;8.428;2023-02-28T15:35:30;9.23;;;6.70;;
21420;SDS011;10871;50.144;8.428;2023-02-28T15:38:03;9.40;;;6.53;;
21420;SDS011;10871;50.144;8.428;2023-02-28T15:40:44;10.00;;;6.30;;
21420;SDS011;10871;50.144;8.428;2023-02-28T15:43:16;7.90;;;6.43;;
21420;SDS011;10871;50.144;8.428;2023-02-28T15:45:45;8.95;;;6.53;;
21420;SDS011;10871;50.144;8.428;2023-02-28T15:48:59;8.48;;;6.45;;
21420;SDS011;10871;50.144;8.428;2023-02-28T15:51:06;10.43;;;6.13;;
21420;SDS011;10871;50.144;8.428;2023-02-28T15:53:37;8.70;;;6.15;;
21420;SDS011;10871;50.144;8.428;2023-02-28T15:56:12;8.65;;;6.28;;
21420;SDS011;10871;50.144;8.428;2023-02-28T15:58:44;6.90;;;5.60;;
21420;SDS011;10871;50.144;8.428;2023-02-28T16:01:19;8.02;;;6.03;;
21420;SDS011;10871;50.144;8.428;2023-02-28T16:03:48;9.13;;;6.45;;
21420;SDS011;10871;50.144;8.428;2023-02-28T16:08:51;8.75;;;6.35;;
21420;SDS011;10871;50.144;8.428;2023-02-28T16:11:20;10.07;;;6.70;;
21420;SDS011;10871;50.144;8.428;2023-02-28T16:13:49;8.73;;;6.43;;
21420;SDS011;10871;50.144;8.428;2023-02-28T16:16:18;9.13;;;6.30;;
21420;SDS011;10871;50.144;8.428;2023-02-28T16:18:48;9.52;;;6.70;;
21420;SDS011;10871;50.144;8.428;2023-02-28T16:21:16;9.05;;;6.60;;
21420;SDS011;10871;50.144;8.428;2023-02-28T16:23:44;9.88;;;6.38;;
21420;SDS011;10871;50.144;8.428;2023-02-28T16:26:21;11.75;;;7.05;;
21420;SDS011;10871;50.144;8.428;2023-02-28T16:28:49;10.20;;;6.60;;
21420;SDS011;10871;50.144;8.428;2023-02-28T16:31:18;9.13;;;6.72;;
21420;SDS011;10871;50.144;8.428;2023-02-28T16:33:47;9.18;;;7.15;;
21420;SDS011;10871;50.144;8.428;2023-02-28T16:36:18;10.60;;;7.50;;
21420;SDS011;10871;50.144;8.428;2023-02-28T16:38:47;9.10;;;6.30;;
21420;SDS011;10871;50.144;8.428;2023-02-28T16:41:17;9.63;;;6.57;;
21420;SDS011;10871;50.144;8.428;2023-02-28T16:43:46;9.75;;;6.47;;
21420;SDS011;10871;50.144;8.428;2023-02-28T16:46:14;9.95;;;5.90;;
21420;SDS011;10871;50.144;8.428;2023-02-28T16:48:44;9.02;;;6.30;;
21420;SDS011;10871;50.144;8.428;2023-02-28T16:51:12;8.85;;;6.50;;
21420;SDS011;10871;50.144;8.428;2023-02-28T16:53:41;8.73;;;6.20;;
21420;SDS011;10871;50.144;8.428;2023-02-28T16:56:27;10.45;;;6.43;;
21420;SDS011;10871;50.144;8.428;2023-02-28T16:58:55;11.80;;;6.65;;
21420;SDS011;10871;50.144;8.428;2023-02-28T17:01:26;9.80;;;6.38;;
21420;SDS011;10871;50.144;8.428;2023-02-28T17:03:55;8.30;;;6.30;;
21420;SDS011;10871;50.144;8.428;2023-02-28T17:06:24;10.00;;;6.20;;
21420;SDS011;10871;50.144;8.428;2023-02-28T17:08:54;9.88;;;5.93;;